Time;durP1;ratioP1;P1;durP2;ratioP2;P2;SDS_P1;SDS_P2;PMS_P1;PMS_P2;Temp;Humidity;BMP_temperature;BMP_pressure;BME280_temperature;BME280_humidity;BME280_pressure;Samples;Min_cycle;Max_cycle;Signal;HPM_P1;HPM_P2
2022/09/28 00:01:53;;;;;;;;;;;6.60;99.90;;;;;;5024438;28;19987;-90
2022/09/28 00:04:19;;;;;;;;;;;6.50;99.90;;;;;;5023928;28;19939;-88
2022/09/28 00:06:46;;;;;;;;;;;6.50;99.90;;;;;;5013386;28;19925;-89
2022/09/28 00:09:15;;;;;;;;;;;6.50;99.90;;;;;;5025648;28;20420;-90
2022/09/28 00:11:42;;;;;;;;;;;6.50;99.90;;;;;;5030101;28;19925;-89
2022/09/28 00:14:08;;;;;;;;;;;6.50;99.90;;;;;;5011086;28;19984;-90
2022/09/28 00:16:35;;;;;;;;;;;6.60;99.90;;;;;;5023617;28;19980;-89
2022/09/28 00:19:01;;;;;;;;;;;6.60;99.90;;;;;;5026846;28;19925;-90
2022/09/28 00:21:29;;;;;;;;;;;6.60;99.90;;;;;;5012909;28;19956;-89
2022/09/28 00:24:11;;;;;;;;;;;6.60;99.90;;;;;;5026350;28;19925;-89
2022/09/28 00:26:53;;;;;;;;;;;6.60;99.90;;;;;;5031015;28;19933;-89
2022/09/28 00:29:20;;;;;;;;;;;6.70;99.90;;;;;;5026594;28;19932;-89
2022/09/28 00:31:46;;;;;;;;;;;6.70;99.90;;;;;;5036605;28;19933;-89
2022/09/28 00:34:12;;;;;;;;;;;6.70;99.90;;;;;;5016398;28;19929;-89
2022/09/28 00:36:38;;;;;;;;;;;6.70;99.90;;;;;;5035087;28;19924;-89
2022/09/28 00:39:05;;;;;;;;;;;6.70;99.90;;;;;;5027905;28;19983;-90
2022/09/28 00:41:30;;;;;;;;;;;6.90;99.90;;;;;;5022928;28;19988;-89
2022/09/28 00:44:15;;;;;;;;;;;6.80;99.90;;;;;;5007494;28;19952;-90
2022/09/28 00:46:41;;;;;;;;;;;6.80;99.90;;;;;;5031397;28;19925;-89
2022/09/28 00:49:10;;;;;;;;;;;6.70;99.90;;;;;;5026952;28;19925;-89
2022/09/28 00:51:37;;;;;;;;;;;6.70;99.90;;;;;;5027418;28;19948;-90
2022/09/28 00:54:03;;;;;;;;;;;6.80;99.90;;;;;;5033408;28;20364;-89
2022/09/28 00:56:31;;;;;;;;;;;6.70;99.90;;;;;;5010139;28;19979;-90
2022/09/28 00:58:58;;;;;;;;;;;6.70;99.90;;;;;;5034625;28;20380;-90
2022/09/28 01:01:25;;;;;;;;;;;6.70;99.90;;;;;;5033575;28;19946;-89
2022/09/28 01:03:51;;;;;;;;;;;6.70;99.90;;;;;;5017761;28;19924;-89
2022/09/28 01:06:21;;;;;;;;;;;6.70;99.90;;;;;;5003712;28;20056;-90
2022/09/28 01:08:50;;;;;;;;;;;6.70;99.90;;;;;;5032145;28;19932;-89
2022/09/28 01:11:16;;;;;;;;;;;6.70;99.90;;;;;;5048524;28;19987;-89
2022/09/28 01:13:42;;;;;;;;;;;6.60;99.90;;;;;;5032701;28;19925;-89
2022/09/28 01:16:14;;;;;;;;;;;6.60;99.90;;;;;;5025959;28;19935;-88
2022/09/28 01:18:48;;;;;;;;;;;6.50;99.90;;;;;;5017212;28;19928;-89
2022/09/28 01:21:13;;;;;;;;;;;6.40;99.90;;;;;;5020827;28;19925;-89
2022/09/28 01:23:51;;;;;;;;;;;6.40;99.90;;;;;;5035679;28;19976;-90
2022/09/28 01:26:36;;;;;;;;;;;6.40;99.90;;;;;;5024402;28;19925;-90
2022/09/28 01:29:06;;;;;;;;;;;6.30;99.90;;;;;;5023507;28;19925;-89
2022/09/28 01:31:33;;;;;;;;;;;6.30;99.90;;;;;;5021733;28;19936;-89
2022/09/28 01:34:02;;;;;;;;;;;6.30;99.90;;;;;;5023862;28;19925;-89
2022/09/28 01:36:33;;;;;;;;;;;6.30;99.90;;;;;;5026306;28;19979;-90
2022/09/28 01:39:11;;;;;;;;;;;6.20;99.90;;;;;;5021045;28;19987;-89
2022/09/28 01:41:39;;;;;;;;;;;6.20;99.90;;;;;;5025384;28;19979;-90
2022/09/28 01:44:07;;;;;;;;;;;6.20;99.90;;;;;;5023791;28;19925;-89
2022/09/28 01:46:40;;;;;;;;;;;6.10;99.90;;;;;;5022108;28;19939;-89
2022/09/28 01:49:22;;;;;;;;;;;6.10;99.90;;;;;;5039612;28;19933;-89
2022/09/28 01:51:53;;;;;;;;;;;6.10;99.90;;;;;;5029898;28;19924;-89
2022/09/28 01:54:24;;;;;;;;;;;6.10;99.90;;;;;;5025955;28;19947;-89
2022/09/28 01:56:49;;;;;;;;;;;6.00;99.90;;;;;;5044615;28;20210;-90
2022/09/28 01:59:19;;;;;;;;;;;6.00;99.90;;;;;;5035877;28;19992;-90
2022/09/28 02:01:47;;;;;;;;;;;6.00;99.90;;;;;;5025568;28;19931;-89
2022/09/28 02:04:18;;;;;;;;;;;5.90;99.90;;;;;;5046602;28;19936;-89
2022/09/28 02:06:56;;;;;;;;;;;5.90;99.90;;;;;;5024036;28;19939;-90
2022/09/28 02:09:24;;;;;;;;;;;5.90;99.90;;;;;;5027988;28;19932;-89
2022/09/28 02:11:57;;;;;;;;;;;5.90;99.90;;;;;;5026151;28;19936;-89
2022/09/28 02:14:24;;;;;;;;;;;5.90;99.90;;;;;;5029874;28;20396;-89
2022/09/28 02:16:53;;;;;;;;;;;5.90;99.90;;;;;;5025218;28;19971;-89
2022/09/28 02:19:24;;;;;;;;;;;5.90;99.90;;;;;;5029409;28;19925;-89
2022/09/28 02:22:08;;;;;;;;;;;5.90;99.90;;;;;;5036008;28;19926;-89
2022/09/28 02:24:37;;;;;;;;;;;5.90;99.90;;;;;;5022283;28;19947;-89
2022/09/28 02:27:05;;;;;;;;;;;5.90;99.90;;;;;;5029490;28;19929;-89
2022/09/28 02:29:31;;;;;;;;;;;5.90;99.90;;;;;;5027933;28;19984;-89
2022/09/28 02:31:57;;;;;;;;;;;6.00;99.90;;;;;;5009379;28;19956;-89
2022/09/28 02:34:22;;;;;;;;;;;5.90;99.90;;;;;;5008210;28;19929;-89
2022/09/28 02:36:48;;;;;;;;;;;5.90;99.90;;;;;;5015050;28;19940;-89
2022/09/28 02:39:15;;;;;;;;;;;5.90;99.90;;;;;;5013083;28;20368;-90
2022/09/28 02:42:01;;;;;;;;;;;5.90;99.90;;;;;;5007819;28;19987;-89
2022/09/28 02:44:42;;;;;;;;;;;5.90;99.90;;;;;;5025050;28;19972;-90
2022/09/28 02:47:40;;;;;;;;;;;6.00;99.90;;;;;;5021928;28;19989;-89
2022/09/28 02:50:19;;;;;;;;;;;6.00;99.90;;;;;;4987903;28;19926;-89
2022/09/28 02:53:08;;;;;;;;;;;6.00;99.90;;;;;;5027222;28;20011;-89
2022/09/28 02:55:36;;;;;;;;;;;6.00;99.90;;;;;;5005364;28;20012;-90
2022/09/28 02:58:10;;;;;;;;;;;6.00;99.90;;;;;;5029432;28;19936;-88
2022/09/28 03:01:05;;;;;;;;;;;6.00;99.90;;;;;;5026995;28;19929;-89
2022/09/28 03:03:51;;;;;;;;;;;6.00;99.90;;;;;;5012991;28;19925;-90
2022/09/28 03:06:29;;;;;;;;;;;6.10;99.90;;;;;;4994440;28;19925;-89
2022/09/28 03:09:06;;;;;;;;;;;6.00;99.90;;;;;;5022754;28;19932;-90
2022/09/28 03:11:42;;;;;;;;;;;6.00;99.90;;;;;;5024655;28;19925;-89
2022/09/28 03:14:08;;;;;;;;;;;6.00;99.90;;;;;;5026796;28;19925;-89
2022/09/28 03:16:34;;;;;;;;;;;5.90;99.90;;;;;;5013608;28;19926;-89
2022/09/28 03:19:00;;;;;;;;;;;5.90;99.90;;;;;;5006282;28;19980;-89
2022/09/28 03:21:25;;;;;;;;;;;5.90;99.90;;;;;;5015170;28;19925;-89
2022/09/28 03:23:51;;;;;;;;;;;5.80;99.90;;;;;;4999174;28;19939;-89
2022/09/28 03:26:16;;;;;;;;;;;5.80;99.90;;;;;;5012828;28;19926;-90
2022/09/28 03:28:42;;;;;;;;;;;5.80;99.90;;;;;;5028510;28;19935;-90
2022/09/28 03:31:08;;;;;;;;;;;5.70;99.90;;;;;;5049750;28;19972;-90
2022/09/28 03:33:33;;;;;;;;;;;5.70;99.90;;;;;;5029212;28;19932;-89
2022/09/28 03:35:59;;;;;;;;;;;5.70;99.90;;;;;;5015820;28;19940;-89
2022/09/28 03:38:25;;;;;;;;;;;5.70;99.90;;;;;;5028670;28;19968;-88
2022/09/28 03:40:58;;;;;;;;;;;5.60;99.90;;;;;;5038335;28;19948;-89
2022/09/28 03:43:23;;;;;;;;;;;5.60;99.90;;;;;;5012416;28;20389;-89
2022/09/28 03:45:53;;;;;;;;;;;5.60;99.90;;;;;;5019317;28;19936;-89
2022/09/28 03:48:23;;;;;;;;;;;5.60;99.90;;;;;;4994320;28;19933;-88
2022/09/28 03:50:51;;;;;;;;;;;5.60;99.90;;;;;;5032968;28;20464;-89
2022/09/28 03:53:16;;;;;;;;;;;5.60;99.90;;;;;;5016032;28;19984;-89
2022/09/28 03:55:42;;;;;;;;;;;5.60;99.90;;;;;;5024623;28;20006;-88
2022/09/28 03:58:08;;;;;;;;;;;5.60;99.90;;;;;;4992664;28;20000;-89
2022/09/28 04:00:33;;;;;;;;;;;5.60;99.90;;;;;;4998156;28;19936;-89
2022/09/28 04:02:59;;;;;;;;;;;5.60;99.90;;;;;;4998029;28;20432;-90
2022/09/28 04:05:24;;;;;;;;;;;5.60;99.90;;;;;;4997038;28;19926;-90
2022/09/28 04:07:52;;;;;;;;;;;5.60;99.90;;;;;;4994435;28;19925;-88
2022/09/28 04:10:18;;;;;;;;;;;5.50;99.90;;;;;;5023941;28;19972;-89
2022/09/28 04:12:44;;;;;;;;;;;5.50;99.90;;;;;;5030834;28;20388;-88
2022/09/28 04:15:10;;;;;;;;;;;5.50;99.90;;;;;;5016156;28;19925;-89
2022/09/28 04:17:35;;;;;;;;;;;5.50;99.90;;;;;;5012136;28;19925;-89
2022/09/28 04:20:02;;;;;;;;;;;5.50;99.90;;;;;;5010869;28;19931;-89
2022/09/28 04:22:28;;;;;;;;;;;5.50;99.90;;;;;;5016566;28;19925;-89
2022/09/28 04:24:54;;;;;;;;;;;5.40;99.90;;;;;;5041618;28;20347;-89
2022/09/28 04:30:04;;;;;;;;;;;5.40;99.90;;;;;;5025945;28;19936;-89
2022/09/28 04:32:29;;;;;;;;;;;5.40;99.90;;;;;;5024631;28;19929;-89
2022/09/28 04:34:55;;;;;;;;;;;5.30;99.90;;;;;;5016931;28;19925;-90
2022/09/28 04:37:20;;;;;;;;;;;5.40;99.90;;;;;;5006180;28;19960;-89
2022/09/28 04:39:46;;;;;;;;;;;5.30;99.90;;;;;;5028091;28;19992;-88
2022/09/28 04:42:12;;;;;;;;;;;5.30;99.90;;;;;;5008583;28;19978;-89
2022/09/28 04:44:37;;;;;;;;;;;5.30;99.90;;;;;;5023594;28;19940;-89
2022/09/28 04:47:03;;;;;;;;;;;5.30;99.90;;;;;;5023493;28;19932;-89
2022/09/28 04:49:28;;;;;;;;;;;5.30;99.90;;;;;;5006774;28;19925;-89
2022/09/28 04:51:54;;;;;;;;;;;5.60;99.90;;;;;;5025704;28;19931;-89
2022/09/28 04:54:20;;;;;;;;;;;5.30;99.90;;;;;;5009571;28;19933;-89
2022/09/28 04:56:45;;;;;;;;;;;5.30;99.90;;;;;;5025600;28;20361;-90
2022/09/28 04:59:12;;;;;;;;;;;5.30;99.90;;;;;;5007126;28;19940;-88
2022/09/28 05:01:38;;;;;;;;;;;5.30;99.90;;;;;;5009018;28;19932;-88
2022/09/28 05:04:03;;;;;;;;;;;5.30;99.90;;;;;;5040555;28;19933;-89
2022/09/28 05:06:29;;;;;;;;;;;5.30;99.90;;;;;;5006109;28;20403;-89
2022/09/28 05:08:56;;;;;;;;;;;5.30;99.90;;;;;;5023605;28;19925;-88
2022/09/28 05:11:22;;;;;;;;;;;5.30;99.90;;;;;;5011801;28;19925;-90
2022/09/28 05:13:49;;;;;;;;;;;5.30;99.90;;;;;;5005819;28;19932;-89
2022/09/28 05:16:14;;;;;;;;;;;5.40;99.90;;;;;;5021189;28;19995;-89
2022/09/28 05:18:40;;;;;;;;;;;5.40;99.90;;;;;;5011120;28;19926;-89
2022/09/28 05:21:13;;;;;;;;;;;5.40;99.90;;;;;;5033418;28;19952;-88
2022/09/28 05:23:40;;;;;;;;;;;5.40;99.90;;;;;;5016417;28;19925;-88
2022/09/28 05:26:07;;;;;;;;;;;5.40;99.90;;;;;;5025043;28;19959;-88
2022/09/28 05:28:33;;;;;;;;;;;5.30;99.90;;;;;;5005798;28;19929;-89
2022/09/28 05:31:03;;;;;;;;;;;5.30;99.90;;;;;;5022021;28;19935;-89
2022/09/28 05:33:29;;;;;;;;;;;5.30;99.90;;;;;;5023657;28;19936;-88
2022/09/28 05:35:55;;;;;;;;;;;5.30;99.90;;;;;;5033056;28;19936;-89
2022/09/28 05:38:21;;;;;;;;;;;5.30;99.90;;;;;;5031667;28;19925;-88
2022/09/28 05:40:47;;;;;;;;;;;5.30;99.90;;;;;;5022308;28;20051;-89
2022/09/28 05:43:12;;;;;;;;;;;5.30;99.90;;;;;;5008696;28;19951;-89
2022/09/28 05:45:38;;;;;;;;;;;5.30;99.90;;;;;;5032883;28;19978;-87
2022/09/28 05:48:04;;;;;;;;;;;5.30;99.90;;;;;;5013610;28;20016;-86
2022/09/28 05:50:29;;;;;;;;;;;5.40;99.90;;;;;;5010872;28;20290;-87
2022/09/28 05:53:02;;;;;;;;;;;5.40;99.90;;;;;;5030348;28;19929;-88
2022/09/28 05:55:28;;;;;;;;;;;5.40;99.90;;;;;;5028130;28;19948;-86
2022/09/28 05:58:01;;;;;;;;;;;5.40;99.90;;;;;;5020082;28;19925;-88
2022/09/28 06:00:27;;;;;;;;;;;5.40;99.90;;;;;;5020381;28;19925;-87
2022/09/28 06:03:00;;;;;;;;;;;5.40;99.90;;;;;;5006504;28;19932;-88
2022/09/28 06:05:26;;;;;;;;;;;5.40;99.90;;;;;;5026895;28;19936;-87
2022/09/28 06:07:54;;;;;;;;;;;5.40;99.90;;;;;;5019967;28;19928;-86
2022/09/28 06:10:20;;;;;;;;;;;5.40;99.90;;;;;;5025243;28;19948;-89
2022/09/28 06:12:55;;;;;;;;;;;5.40;99.90;;;;;;5021630;28;19925;-89
2022/09/28 06:15:21;;;;;;;;;;;6.20;99.90;;;;;;5016242;28;20443;-88
2022/09/28 06:17:47;;;;;;;;;;;5.50;99.90;;;;;;5022862;28;19933;-89
2022/09/28 06:20:12;;;;;;;;;;;5.50;99.90;;;;;;5022295;28;19933;-89
2022/09/28 06:22:38;;;;;;;;;;;5.50;99.90;;;;;;5005170;28;19993;-89
2022/09/28 06:25:05;;;;;;;;;;;5.60;99.90;;;;;;5003698;28;19925;-89
2022/09/28 06:27:31;;;;;;;;;;;5.70;99.90;;;;;;5050611;28;19933;-88
2022/09/28 06:29:59;;;;;;;;;;;5.70;99.90;;;;;;5006335;28;19926;-89
2022/09/28 06:32:28;;;;;;;;;;;5.80;99.90;;;;;;5039400;28;19929;-87
2022/09/28 06:34:53;;;;;;;;;;;5.90;99.90;;;;;;5019572;28;19948;-88
2022/09/28 06:37:19;;;;;;;;;;;5.90;99.90;;;;;;5018384;28;19988;-88
2022/09/28 06:39:45;;;;;;;;;;;6.00;99.90;;;;;;5046488;28;19997;-88
2022/09/28 06:42:10;;;;;;;;;;;6.00;99.90;;;;;;5019456;28;19931;-89
2022/09/28 06:44:36;;;;;;;;;;;6.10;99.90;;;;;;5007509;28;20016;-89
2022/09/28 06:47:02;;;;;;;;;;;6.10;99.90;;;;;;5041526;28;19976;-88
2022/09/28 06:49:29;;;;;;;;;;;6.20;99.90;;;;;;5019625;28;19926;-88
2022/09/28 06:51:54;;;;;;;;;;;6.20;99.90;;;;;;5009142;28;20166;-88
2022/09/28 06:54:24;;;;;;;;;;;6.20;99.90;;;;;;5026505;28;20316;-86
2022/09/28 06:56:51;;;;;;;;;;;6.30;99.90;;;;;;5024824;28;19972;-87
2022/09/28 06:59:16;;;;;;;;;;;6.30;99.90;;;;;;5018852;28;19933;-86
2022/09/28 07:01:42;;;;;;;;;;;6.40;99.90;;;;;;5020804;28;19933;-87
2022/09/28 07:04:08;;;;;;;;;;;6.50;99.90;;;;;;5005065;28;19925;-88
2022/09/28 07:06:33;;;;;;;;;;;6.50;99.90;;;;;;5027122;28;19925;-87
2022/09/28 07:09:01;;;;;;;;;;;6.60;99.90;;;;;;5013060;28;19926;-87
2022/09/28 07:11:27;;;;;;;;;;;6.70;99.90;;;;;;5025929;28;19931;-86
2022/09/28 07:13:53;;;;;;;;;;;6.70;99.90;;;;;;5034040;28;19972;-86
2022/09/28 07:16:19;;;;;;;;;;;6.80;99.90;;;;;;5019533;28;19929;-88
2022/09/28 07:18:44;;;;;;;;;;;6.90;99.90;;;;;;5005385;28;19931;-88
2022/09/28 07:21:11;;;;;;;;;;;7.00;99.90;;;;;;5010311;28;19933;-87
2022/09/28 07:23:36;;;;;;;;;;;7.00;99.90;;;;;;5004721;28;19932;-87
2022/09/28 07:26:03;;;;;;;;;;;7.10;99.90;;;;;;5016667;28;19961;-87
2022/09/28 07:28:30;;;;;;;;;;;7.20;99.90;;;;;;5023346;28;19975;-88
2022/09/28 07:30:56;;;;;;;;;;;7.30;99.90;;;;;;5040084;28;20695;-88
2022/09/28 07:33:29;;;;;;;;;;;7.30;99.90;;;;;;5024834;28;19931;-88
2022/09/28 07:35:54;;;;;;;;;;;7.40;99.90;;;;;;5014014;28;19956;-88
2022/09/28 07:38:24;;;;;;;;;;;7.30;99.90;;;;;;5020104;28;19925;-87
2022/09/28 07:43:34;;;;;;;;;;;7.50;99.90;;;;;;5027378;28;19929;-87
2022/09/28 07:46:00;;;;;;;;;;;7.60;99.90;;;;;;5023493;28;19934;-87
2022/09/28 07:48:25;;;;;;;;;;;7.60;99.90;;;;;;5010985;28;19935;-87
2022/09/28 07:50:52;;;;;;;;;;;7.70;99.90;;;;;;5021556;28;19972;-87
2022/09/28 07:53:19;;;;;;;;;;;7.80;99.90;;;;;;5044013;28;19932;-88
2022/09/28 07:55:50;;;;;;;;;;;7.90;99.90;;;;;;5024869;28;19936;-87
2022/09/28 07:58:16;;;;;;;;;;;7.90;99.90;;;;;;5020589;28;20385;-87
2022/09/28 08:00:46;;;;;;;;;;;8.00;99.90;;;;;;5025212;28;19956;-86
2022/09/28 08:03:11;;;;;;;;;;;8.00;99.90;;;;;;5021380;28;20385;-88
2022/09/28 08:05:37;;;;;;;;;;;8.00;99.90;;;;;;5025772;28;20427;-86
2022/09/28 08:08:03;;;;;;;;;;;8.00;99.90;;;;;;5022015;28;20008;-88
2022/09/28 08:10:29;;;;;;;;;;;8.00;99.90;;;;;;5007276;28;19972;-89
2022/09/28 08:12:55;;;;;;;;;;;8.10;99.90;;;;;;5040110;28;20925;-89
2022/09/28 08:15:20;;;;;;;;;;;8.10;99.90;;;;;;5008762;28;19925;-87
2022/09/28 08:17:47;;;;;;;;;;;8.20;99.90;;;;;;5023572;28;19937;-88
2022/09/28 08:23:04;;;;;;;;;;;8.50;99.90;;;;;;5056745;28;20453;-88
2022/09/28 08:25:29;;;;;;;;;;;8.70;99.90;;;;;;5043828;28;19975;-88
2022/09/28 08:27:55;;;;;;;;;;;8.70;99.90;;;;;;5003898;28;19932;-88
2022/09/28 08:30:21;;;;;;;;;;;8.60;99.90;;;;;;5024385;28;19960;-88
2022/09/28 08:32:49;;;;;;;;;;;8.60;99.90;;;;;;5011672;28;20192;-89
2022/09/28 08:35:15;;;;;;;;;;;8.60;99.90;;;;;;5020730;28;19933;-89
2022/09/28 08:37:41;;;;;;;;;;;8.60;99.90;;;;;;5019926;28;19926;-89
2022/09/28 08:40:18;;;;;;;;;;;8.70;99.90;;;;;;5003265;28;19925;-90
2022/09/28 08:42:44;;;;;;;;;;;8.80;99.90;;;;;;5019713;28;20017;-90
2022/09/28 08:45:13;;;;;;;;;;;8.80;99.90;;;;;;5020247;28;19924;-89
2022/09/28 08:50:26;;;;;;;;;;;9.00;99.90;;;;;;5042326;28;20028;-89
2022/09/28 08:52:56;;;;;;;;;;;9.00;99.90;;;;;;5025182;28;19925;-90
2022/09/28 08:55:36;;;;;;;;;;;9.10;99.90;;;;;;5024029;28;19925;-90
2022/09/28 08:58:21;;;;;;;;;;;9.00;99.90;;;;;;5023095;28;20539;-90
2022/09/28 09:00:50;;;;;;;;;;;9.10;99.90;;;;;;5021604;28;19964;-87
2022/09/28 09:03:22;;;;;;;;;;;9.10;99.90;;;;;;5019262;28;19984;-89
2022/09/28 09:06:03;;;;;;;;;;;9.20;99.90;;;;;;5024827;28;20676;-90
2022/09/28 09:08:32;;;;;;;;;;;9.30;99.90;;;;;;5034815;28;19925;-90
2022/09/28 09:11:08;;;;;;;;;;;9.40;99.90;;;;;;5023513;28;19925;-90
2022/09/28 09:13:49;;;;;;;;;;;9.50;99.90;;;;;;5027142;28;19959;-90
2022/09/28 09:16:21;;;;;;;;;;;9.60;99.90;;;;;;5043077;28;19932;-89
2022/09/28 09:18:52;;;;;;;;;;;9.70;99.90;;;;;;5030548;28;19929;-89
2022/09/28 09:21:35;;;;;;;;;;;9.80;99.90;;;;;;5023027;28;19925;-89
2022/09/28 09:24:16;;;;;;;;;;;9.90;99.90;;;;;;5046340;28;20015;-89
2022/09/28 09:26:42;;;;;;;;;;;9.80;99.90;;;;;;5026985;28;19925;-89
2022/09/28 09:29:13;;;;;;;;;;;10.10;99.90;;;;;;5024349;28;19946;-90
2022/09/28 09:31:50;;;;;;;;;;;10.20;99.90;;;;;;5027081;28;22182;-90
2022/09/28 09:34:34;;;;;;;;;;;10.30;99.90;;;;;;5040352;28;19947;-91
2022/09/28 09:37:26;;;;;;;;;;;10.30;99.90;;;;;;5024188;28;20000;-91
2022/09/28 09:40:01;;;;;;;;;;;10.40;99.90;;;;;;5019806;28;19933;-91
2022/09/28 09:42:27;;;;;;;;;;;10.50;99.90;;;;;;5022755;28;19925;-89
2022/09/28 09:44:56;;;;;;;;;;;10.60;99.90;;;;;;5036940;28;19944;-90
2022/09/28 09:47:27;;;;;;;;;;;10.70;99.90;;;;;;5025329;28;19946;-91
2022/09/28 09:49:56;;;;;;;;;;;10.80;99.90;;;;;;5017741;28;19996;-90
2022/09/28 09:52:22;;;;;;;;;;;10.90;99.90;;;;;;5030977;28;19924;-90
2022/09/28 09:55:00;;;;;;;;;;;11.00;99.90;;;;;;5030775;28;19939;-92
2022/09/28 09:57:32;;;;;;;;;;;11.20;99.90;;;;;;5020024;28;19924;-89
2022/09/28 09:59:59;;;;;;;;;;;11.30;99.90;;;;;;5039262;28;19928;-90
2022/09/28 10:02:30;;;;;;;;;;;11.50;99.90;;;;;;5042870;28;19924;-90
2022/09/28 10:05:22;;;;;;;;;;;11.60;99.90;;;;;;5020155;28;20408;-92
2022/09/28 10:07:57;;;;;;;;;;;11.60;99.90;;;;;;5037026;28;20285;-96
2022/09/28 10:10:32;;;;;;;;;;;11.70;99.90;;;;;;5026220;28;20019;-94
2022/09/28 10:12:58;;;;;;;;;;;11.80;99.90;;;;;;5030130;28;20147;-94
2022/09/28 10:15:25;;;;;;;;;;;11.90;99.90;;;;;;5009909;28;19924;-93
2022/09/28 10:17:51;;;;;;;;;;;11.90;99.90;;;;;;5014550;28;19947;-94
2022/09/28 10:20:17;;;;;;;;;;;11.80;99.90;;;;;;5009466;28;19925;-93
2022/09/28 10:22:43;;;;;;;;;;;11.80;99.90;;;;;;5002922;28;19925;-93
2022/09/28 10:25:10;;;;;;;;;;;11.80;99.90;;;;;;5023793;28;19928;-93
2022/09/28 10:27:39;;;;;;;;;;;11.80;99.90;;;;;;5025675;28;19924;-93
2022/09/28 10:30:11;;;;;;;;;;;11.90;99.90;;;;;;5018071;28;19935;-94
2022/09/28 10:32:38;;;;;;;;;;;11.90;99.90;;;;;;5025367;28;19924;-92
2022/09/28 10:35:30;;;;;;;;;;;12.00;99.90;;;;;;5042971;28;19929;-92
2022/09/28 10:37:58;;;;;;;;;;;12.10;99.90;;;;;;5025821;28;19925;-92
2022/09/28 10:40:44;;;;;;;;;;;12.20;99.90;;;;;;5043170;28;19932;-92
2022/09/28 10:43:26;;;;;;;;;;;12.30;99.90;;;;;;5023797;28;20367;-92
2022/09/28 10:45:59;;;;;;;;;;;12.30;99.90;;;;;;5040412;28;19925;-91
2022/09/28 10:48:25;;;;;;;;;;;12.30;99.90;;;;;;5043498;28;19925;-94
2022/09/28 10:51:03;;;;;;;;;;;12.30;99.90;;;;;;5010138;28;20008;-94
2022/09/28 10:53:28;;;;;;;;;;;12.30;99.90;;;;;;5032948;28;19948;-95
2022/09/28 10:56:04;;;;;;;;;;;12.30;99.90;;;;;;5034517;28;19933;-95
2022/09/28 10:58:34;;;;;;;;;;;12.30;99.90;;;;;;5019803;28;19970;-95
2022/09/28 11:01:02;;;;;;;;;;;12.30;99.90;;;;;;5051893;28;19933;-95
2022/09/28 11:03:28;;;;;;;;;;;12.20;99.90;;;;;;5047281;28;20284;-95
2022/09/28 11:05:55;;;;;;;;;;;12.10;99.90;;;;;;5066985;28;19929;-95
2022/09/28 11:08:24;;;;;;;;;;;12.10;99.90;;;;;;5049126;28;19987;-95
2022/09/28 11:11:00;;;;;;;;;;;12.10;99.90;;;;;;5033304;28;19936;-96
2022/09/28 11:13:26;;;;;;;;;;;12.20;99.90;;;;;;5044238;28;19924;-95
2022/09/28 11:15:58;;;;;;;;;;;12.40;99.90;;;;;;5025499;28;19939;-95
2022/09/28 11:18:31;;;;;;;;;;;12.60;99.90;;;;;;5034926;28;20451;-92
2022/09/28 11:21:07;;;;;;;;;;;12.90;99.90;;;;;;5046400;28;19932;-93
2022/09/28 11:23:33;;;;;;;;;;;13.20;99.90;;;;;;5049144;28;19928;-95
2022/09/28 11:26:01;;;;;;;;;;;13.40;99.90;;;;;;5020037;28;20526;-96
2022/09/28 11:28:29;;;;;;;;;;;13.50;99.90;;;;;;5032043;28;19999;-96
2022/09/28 11:30:54;;;;;;;;;;;13.60;99.90;;;;;;5049277;28;19979;-95
2022/09/28 11:33:27;;;;;;;;;;;13.60;99.90;;;;;;5024335;28;20422;-95
2022/09/28 11:36:11;;;;;;;;;;;13.70;99.90;;;;;;5041725;28;19966;-94
2022/09/28 11:38:56;;;;;;;;;;;13.50;99.90;;;;;;5057534;28;19924;-94
2022/09/28 11:41:41;;;;;;;;;;;13.50;99.90;;;;;;5037915;28;19929;-95
2022/09/28 11:44:25;;;;;;;;;;;13.50;99.90;;;;;;5034984;28;19940;-95
2022/09/28 11:46:51;;;;;;;;;;;13.50;99.90;;;;;;5024709;28;19925;-95
2022/09/28 11:49:19;;;;;;;;;;;13.60;99.90;;;;;;5033630;28;20420;-95
2022/09/28 11:51:47;;;;;;;;;;;13.60;99.90;;;;;;5030536;28;20439;-96
2022/09/28 11:54:19;;;;;;;;;;;13.60;99.90;;;;;;5027774;28;19929;-96
2022/09/28 11:56:49;;;;;;;;;;;13.70;99.90;;;;;;5027169;28;19947;-95
2022/09/28 11:59:34;;;;;;;;;;;13.70;99.90;;;;;;5030592;28;19940;-95
2022/09/28 12:02:12;;;;;;;;;;;13.60;99.90;;;;;;5025856;28;19933;-95
2022/09/28 12:04:50;;;;;;;;;;;13.60;99.90;;;;;;5031245;28;19937;-93
2022/09/28 12:07:26;;;;;;;;;;;13.30;99.90;;;;;;5031562;28;19925;-94
2022/09/28 12:09:54;;;;;;;;;;;13.20;99.90;;;;;;5043126;28;19929;-95
2022/09/28 12:12:34;;;;;;;;;;;13.10;99.90;;;;;;5025995;28;19953;-94
2022/09/28 12:15:11;;;;;;;;;;;13.10;99.90;;;;;;5028174;28;19956;-93
2022/09/28 12:17:47;;;;;;;;;;;13.00;99.90;;;;;;5028163;28;19921;-93
2022/09/28 12:20:25;;;;;;;;;;;13.00;99.90;;;;;;5039296;28;19939;-94
2022/09/28 12:23:02;;;;;;;;;;;13.10;99.90;;;;;;5015340;28;19926;-94
2022/09/28 12:25:32;;;;;;;;;;;13.10;99.90;;;;;;5021227;28;19933;-95
2022/09/28 12:27:57;;;;;;;;;;;13.20;99.90;;;;;;5029267;28;19925;-96
2022/09/28 12:30:26;;;;;;;;;;;13.40;99.90;;;;;;5014992;28;20011;-95
2022/09/28 12:33:14;;;;;;;;;;;13.50;99.90;;;;;;5014096;28;19951;-93
2022/09/28 12:35:51;;;;;;;;;;;13.60;99.90;;;;;;5041271;28;19968;-93
2022/09/28 12:38:29;;;;;;;;;;;13.80;99.90;;;;;;5036676;28;19925;-92
2022/09/28 12:41:15;;;;;;;;;;;13.80;99.90;;;;;;5024468;28;19925;-94
2022/09/28 12:43:48;;;;;;;;;;;13.80;99.90;;;;;;5024850;28;19975;-95
2022/09/28 12:46:22;;;;;;;;;;;13.90;99.90;;;;;;5022188;28;19925;-90
2022/09/28 12:48:55;;;;;;;;;;;13.90;99.90;;;;;;5049132;28;19933;-90
2022/09/28 12:51:23;;;;;;;;;;;13.80;99.90;;;;;;5025074;28;20011;-90
2022/09/28 12:54:04;;;;;;;;;;;13.60;99.90;;;;;;5053547;28;19925;-88
2022/09/28 12:56:45;;;;;;;;;;;13.40;99.90;;;;;;5026932;28;19955;-88
2022/09/28 12:59:15;;;;;;;;;;;13.20;99.90;;;;;;5020427;28;19933;-94
2022/09/28 13:01:59;;;;;;;;;;;12.90;99.90;;;;;;5024148;28;19971;-94
2022/09/28 13:04:39;;;;;;;;;;;12.80;99.90;;;;;;5040643;28;19924;-93
2022/09/28 13:07:15;;;;;;;;;;;12.60;99.90;;;;;;5023807;28;19925;-90
2022/09/28 13:09:48;;;;;;;;;;;12.40;99.90;;;;;;5037766;28;19932;-92
2022/09/28 13:12:19;;;;;;;;;;;12.30;99.90;;;;;;5032442;28;19932;-92
2022/09/28 13:14:49;;;;;;;;;;;12.20;99.90;;;;;;5024610;28;20020;-93
2022/09/28 13:17:33;;;;;;;;;;;12.10;99.90;;;;;;5027170;28;20292;-92
2022/09/28 13:20:16;;;;;;;;;;;12.00;99.90;;;;;;5023532;28;19985;-93
2022/09/28 13:22:55;;;;;;;;;;;11.90;99.90;;;;;;5034450;28;20230;-93
2022/09/28 13:25:22;;;;;;;;;;;11.80;99.90;;;;;;5022180;28;19932;-92
2022/09/28 13:27:58;;;;;;;;;;;11.80;99.90;;;;;;5023986;28;19925;-92
2022/09/28 13:30:24;;;;;;;;;;;11.80;99.90;;;;;;5021456;28;19929;-92
2022/09/28 13:32:50;;;;;;;;;;;11.90;99.90;;;;;;5021466;28;19925;-92
2022/09/28 13:35:19;;;;;;;;;;;12.00;99.90;;;;;;5005516;28;19952;-91
2022/09/28 13:37:46;;;;;;;;;;;12.00;99.90;;;;;;5022318;28;19925;-92
2022/09/28 13:40:12;;;;;;;;;;;12.00;99.90;;;;;;5022719;28;19956;-91
2022/09/28 13:42:38;;;;;;;;;;;12.00;99.90;;;;;;5021325;28;19956;-91
2022/09/28 13:45:08;;;;;;;;;;;12.00;99.90;;;;;;5028799;28;19925;-89
2022/09/28 13:47:53;;;;;;;;;;;12.10;99.90;;;;;;5036570;28;19925;-87
2022/09/28 13:50:27;;;;;;;;;;;12.20;99.90;;;;;;5021509;28;19935;-90
2022/09/28 13:53:12;;;;;;;;;;;12.50;99.90;;;;;;5026007;28;19929;-87
2022/09/28 13:55:38;;;;;;;;;;;12.80;99.90;;;;;;5020379;28;19925;-90
2022/09/28 13:58:25;;;;;;;;;;;13.00;99.90;;;;;;5016218;28;19932;-91
2022/09/28 14:00:57;;;;;;;;;;;13.20;99.90;;;;;;5032480;28;19932;-92
2022/09/28 14:03:44;;;;;;;;;;;13.30;99.90;;;;;;5024562;28;19976;-91
2022/09/28 14:06:29;;;;;;;;;;;13.40;99.90;;;;;;5020869;28;19940;-88
2022/09/28 14:09:06;;;;;;;;;;;13.60;99.90;;;;;;5019554;28;19929;-87
2022/09/28 14:11:35;;;;;;;;;;;13.70;99.90;;;;;;5023364;28;19932;-88
2022/09/28 14:14:06;;;;;;;;;;;13.80;99.90;;;;;;5019409;28;19925;-87
2022/09/28 14:16:33;;;;;;;;;;;13.70;99.90;;;;;;5013192;28;19936;-87
2022/09/28 14:19:01;;;;;;;;;;;13.60;99.90;;;;;;5020248;28;20293;-89
2022/09/28 14:21:27;;;;;;;;;;;13.40;99.90;;;;;;5017764;28;19982;-89
2022/09/28 14:23:55;;;;;;;;;;;13.30;99.90;;;;;;5016623;28;19961;-89
2022/09/28 14:26:30;;;;;;;;;;;13.10;99.90;;;;;;5024480;28;19932;-89
2022/09/28 14:29:15;;;;;;;;;;;12.90;99.90;;;;;;5013916;28;19929;-88
2022/09/28 14:31:42;;;;;;;;;;;12.80;99.90;;;;;;5040097;28;19925;-88
2022/09/28 14:34:22;;;;;;;;;;;12.60;99.90;;;;;;5002707;28;19992;-91
2022/09/28 14:42:20;;;;;;;;;;;12.30;99.90;;;;;;5033443;28;20353;-89
2022/09/28 14:45:12;;;;;;;;;;;12.20;99.90;;;;;;5015652;28;19925;-87
2022/09/28 14:48:03;;;;;;;;;;;12.10;99.90;;;;;;5012160;28;20309;-90
2022/09/28 14:50:29;;;;;;;;;;;11.90;99.90;;;;;;5035618;28;19978;-88
2022/09/28 14:53:08;;;;;;;;;;;11.90;99.90;;;;;;5024559;28;19992;-89
2022/09/28 14:55:49;;;;;;;;;;;11.80;99.90;;;;;;5022434;28;19964;-88
2022/09/28 14:58:22;;;;;;;;;;;11.80;99.90;;;;;;5022780;28;19933;-88
2022/09/28 15:00:50;;;;;;;;;;;11.80;99.90;;;;;;5037352;28;19965;-88
2022/09/28 15:03:16;;;;;;;;;;;11.80;99.90;;;;;;5025353;28;19968;-88